South Pass, Louisiana
Current Conditions -  °F | °C
As of 5:51 AM on Saturday 01 Nov 2014 (Local Time) from KBVE Reporting Station
Clear Clear  
Wind Chill: 51°   Ceiling: Unl
Heat Index: 51°   Visibility: 10mi
Dew Point: 37°   Wind: 13mph
Humidity: 59%   Direction: 360°N
Pressure: 30.23"   Gusts: 26mph
Location:  29.2037°N, 89.3875°W
Report Text: KBVE 011051Z AUTO 36011G23KT 10SM CLR 11/03 A3023 RMK AO2 PK WND 34027/0954 SLP238 T01060028
Loading
Personal Weather Stations






























Interactive Weather Map
Tropical Storm Tracking
New forecast layout! Learn more

10-Day Weather Forecast

Advertisements
Track Severe Weather on mobile